CPX108 Details

Departure: Seattle-Tacoma International Airport (KSEA)
Arrival: Daniel K Inouye International Airport (PHNL) at N/A
Route: HAROB6 HQM SEDAR FOZZI HEKAB A332 HALLI BOARD R464 BITTA MAGGI3
Notes:


Current Weather Information
KSEA 190553Z 16008KT 10SM SCT049 OVC060 10/07 A2977 RMK AO2 SLP089 60057 T01000072 10111 20089 58023 $
PHNL 190553Z 08008KT 10SM FEW026 27/20 A3004 RMK AO2 SLP172 60000 T02720200 10317 20272 53014 $